Time;durP1;ratioP1;P1;durP2;ratioP2;P2;SDS_P1;SDS_P2;PMS_P1;PMS_P2;Temp;Humidity;BMP_temperature;BMP_pressure;BME280_temperature;BME280_humidity;BME280_pressure;Samples;Min_cycle;Max_cycle;Signal;HPM_P1;HPM_P2
2022/12/22 03:28:12;;;;;;;13.23;9.10;;;;;;;9.75;100.00;99362.94;5034759;28;20244;-77
2022/12/22 03:30:39;;;;;;;12.35;8.95;;;;;;;9.78;100.00;99345.78;5035029;28;20202;-76
2022/12/22 03:33:07;;;;;;;12.65;8.15;;;;;;;9.76;100.00;99345.84;5034775;28;20347;-76
2022/12/22 03:35:33;;;;;;;10.45;8.88;;;;;;;9.74;100.00;99336.16;5035114;28;20201;-76
2022/12/22 03:38:02;;;;;;;11.65;8.75;;;;;;;9.75;100.00;99346.81;5034559;28;20572;-75
2022/12/22 03:40:29;;;;;;;15.02;9.85;;;;;;;9.73;100.00;99329.06;5035149;28;20218;-77
2022/12/22 03:48:25;;;;;;;17.42;12.32;;;;;;;9.79;100.00;99336.72;5036406;28;20193;-76
2022/12/22 03:50:51;;;;;;;13.18;9.68;;;;;;;9.79;100.00;99343.00;5037048;28;20204;-76
2022/12/22 03:53:18;;;;;;;12.20;10.00;;;;;;;9.78;100.00;99322.44;5035648;28;20210;-76
2022/12/22 03:55:44;;;;;;;11.23;9.10;;;;;;;9.79;100.00;99326.88;5035606;28;20197;-77
2022/12/22 03:58:11;;;;;;;11.75;8.90;;;;;;;9.81;100.00;99326.75;5034566;28;20205;-76
2022/12/22 04:00:37;;;;;;;12.27;9.18;;;;;;;9.80;100.00;99320.50;5038874;28;20732;-74
2022/12/22 04:03:04;;;;;;;12.15;9.57;;;;;;;9.78;100.00;99319.75;5037136;28;20575;-76
2022/12/22 04:05:32;;;;;;;12.60;9.77;;;;;;;9.83;100.00;99324.84;5039320;28;20642;-75
2022/12/22 04:07:58;;;;;;;14.15;9.23;;;;;;;9.78;100.00;99319.75;5041147;28;20204;-76
2022/12/22 04:13:09;;;;;;;13.70;8.70;;;;;;;9.85;100.00;99317.56;5035680;28;20228;-77
2022/12/22 04:15:35;;;;;;;8.55;7.10;;;;;;;9.88;100.00;99313.81;5035410;28;20503;-76
2022/12/22 04:18:02;;;;;;;16.70;11.93;;;;;;;9.86;100.00;99304.97;5035161;28;20202;-77
2022/12/22 04:20:29;;;;;;;10.23;6.78;;;;;;;9.93;100.00;99314.41;5035361;28;20229;-75
2022/12/22 04:22:57;;;;;;;10.32;7.20;;;;;;;9.90;100.00;99299.31;5034839;28;20731;-75
2022/12/22 04:25:24;;;;;;;8.95;6.75;;;;;;;9.85;100.00;99309.47;5034722;28;20222;-76
2022/12/22 04:27:50;;;;;;;8.35;6.35;;;;;;;9.92;100.00;99297.41;5033590;28;20759;-75
2022/12/22 04:30:17;;;;;;;10.70;6.40;;;;;;;9.91;100.00;99297.50;5035077;28;20226;-76
2022/12/22 04:32:44;;;;;;;9.02;6.65;;;;;;;9.87;100.00;99293.28;5034647;28;20201;-76
2022/12/22 04:35:11;;;;;;;9.32;6.28;;;;;;;9.92;100.00;99293.84;5034297;28;20194;-76
2022/12/22 04:37:38;;;;;;;8.55;6.18;;;;;;;9.90;100.00;99282.31;5035890;28;20198;-76
2022/12/22 04:40:07;;;;;;;8.38;7.20;;;;;;;9.89;100.00;99284.16;5037950;28;20225;-77
2022/12/22 04:42:33;;;;;;;8.60;6.85;;;;;;;9.88;100.00;99284.22;5038162;28;20202;-76
2022/12/22 04:45:00;;;;;;;6.57;5.53;;;;;;;9.93;100.00;99282.16;5034562;28;20228;-76
2022/12/22 04:47:26;;;;;;;10.38;5.65;;;;;;;9.91;100.00;99290.31;5034237;28;20212;-77
2022/12/22 04:49:54;;;;;;;6.88;6.10;;;;;;;9.90;100.00;99275.09;5033661;28;20228;-76
2022/12/22 04:52:20;;;;;;;10.40;6.85;;;;;;;9.90;100.00;99274.25;5034952;28;20198;-77
2022/12/22 04:54:47;;;;;;;8.68;5.47;;;;;;;9.94;100.00;99273.09;5034340;28;20209;-76
2022/12/22 04:57:15;;;;;;;7.20;4.80;;;;;;;9.96;100.00;99273.88;5034130;28;20216;-76
2022/12/22 04:59:41;;;;;;;9.48;7.75;;;;;;;9.93;100.00;99268.72;5047606;22;20222;-75
2022/12/22 05:02:08;;;;;;;9.25;5.32;;;;;;;9.93;100.00;99268.72;5039061;28;20229;-74
2022/12/22 05:04:34;;;;;;;5.53;4.63;;;;;;;9.93;100.00;99258.81;5039962;28;20236;-74
2022/12/22 05:07:01;;;;;;;5.75;4.72;;;;;;;9.91;100.00;99246.41;5039616;28;20268;-73
2022/12/22 05:09:27;;;;;;;7.65;5.15;;;;;;;9.88;100.00;99258.22;5038944;28;20228;-74
2022/12/22 05:11:54;;;;;;;7.57;5.00;;;;;;;9.94;100.00;99251.59;5040614;28;20301;-74
2022/12/22 05:14:22;;;;;;;8.48;4.85;;;;;;;9.89;100.00;99249.19;5044417;28;20210;-74
2022/12/22 05:16:48;;;;;;;10.68;5.32;;;;;;;9.91;100.00;99249.09;5046422;28;20308;-74
2022/12/22 05:19:15;;;;;;;7.60;5.35;;;;;;;9.91;100.00;99244.59;5047854;28;20293;-75
2022/12/22 05:21:42;;;;;;;12.75;6.22;;;;;;;9.90;100.00;99233.91;5048497;28;20202;-76
2022/12/22 05:24:08;;;;;;;17.27;6.15;;;;;;;9.88;100.00;99239.41;5045829;28;20266;-74
2022/12/22 05:26:35;;;;;;;8.50;5.10;;;;;;;9.85;100.00;99236.88;5049275;28;20265;-74
2022/12/22 05:29:01;;;;;;;6.20;5.28;;;;;;;9.86;100.00;99246.69;5047081;28;20225;-74
2022/12/22 05:31:29;;;;;;;7.88;5.60;;;;;;;9.86;100.00;99226.97;5049370;28;20206;-73
2022/12/22 05:33:56;;;;;;;6.90;4.80;;;;;;;9.91;100.00;99227.59;5049300;28;20206;-74
2022/12/22 05:36:22;;;;;;;9.20;5.75;;;;;;;9.88;100.00;99231.34;5048167;28;20288;-74
2022/12/22 05:38:49;;;;;;;6.30;5.30;;;;;;;9.90;100.00;99229.38;5046691;28;20204;-74
2022/12/22 05:41:15;;;;;;;8.23;5.05;;;;;;;9.88;100.00;99220.56;5047403;28;20655;-74
2022/12/22 05:43:42;;;;;;;9.18;6.00;;;;;;;9.89;100.00;99227.66;5046924;28;20201;-74
2022/12/22 05:46:10;;;;;;;8.90;6.40;;;;;;;9.92;100.00;99219.41;5044895;28;20249;-75
2022/12/22 05:48:38;;;;;;;8.00;5.72;;;;;;;9.93;100.00;99229.22;5044767;28;20288;-74
2022/12/22 05:51:06;;;;;;;11.27;5.65;;;;;;;9.99;100.00;99222.59;5046899;28;20198;-74
2022/12/22 05:53:32;;;;;;;8.50;4.70;;;;;;;10.00;100.00;99218.94;5047393;28;20206;-72
2022/12/22 05:55:59;;;;;;;7.68;4.32;;;;;;;9.99;100.00;99218.09;5047392;28;20205;-73
2022/12/22 05:58:26;;;;;;;5.93;4.90;;;;;;;10.01;100.00;99204.53;5044717;28;20198;-75
2022/12/22 06:00:56;;;;;;;5.63;4.65;;;;;;;10.05;100.00;99224.91;5046696;28;20297;-74
2022/12/22 06:03:22;;;;;;;4.20;3.50;;;;;;;10.11;100.00;99205.69;5047253;28;20579;-73
2022/12/22 06:05:51;;;;;;;9.75;5.50;;;;;;;10.11;100.00;99221.84;5045174;28;20214;-74
2022/12/22 06:08:17;;;;;;;7.95;5.50;;;;;;;10.14;100.00;99223.47;5045593;28;20232;-74
2022/12/22 06:10:44;;;;;;;4.53;3.25;;;;;;;10.17;100.00;99224.13;5046955;28;20808;-75
2022/12/22 06:13:10;;;;;;;5.50;3.65;;;;;;;10.18;100.00;99204.34;5046591;28;20632;-75
2022/12/22 06:15:37;;;;;;;5.07;2.55;;;;;;;10.20;100.00;99205.13;5035918;28;20198;-73
2022/12/22 06:18:03;;;;;;;4.65;2.35;;;;;;;10.17;100.00;99194.53;5037247;28;20202;-75
2022/12/22 06:20:30;;;;;;;4.95;3.30;;;;;;;10.21;100.00;99196.06;5037833;28;20225;-73
2022/12/22 06:22:58;;;;;;;5.30;3.10;;;;;;;10.23;100.00;99191.47;5037721;28;20206;-73
2022/12/22 06:25:24;;;;;;;2.17;1.98;;;;;;;10.26;100.00;99184.16;5037232;28;20225;-75
2022/12/22 06:27:51;;;;;;;3.97;2.88;;;;;;;10.27;100.00;99193.97;5036777;28;20202;-75
2022/12/22 06:30:17;;;;;;;3.67;2.88;;;;;;;10.26;100.00;99190.41;5046310;28;20731;-75
2022/12/22 06:32:44;;;;;;;3.72;2.58;;;;;;;10.29;100.00;99203.72;5057197;28;20274;-74
2022/12/22 06:35:10;;;;;;;3.70;2.95;;;;;;;10.30;100.00;99197.34;5058336;28;20249;-75
2022/12/22 06:37:37;;;;;;;4.85;2.60;;;;;;;10.34;100.00;99193.50;5046593;28;20206;-73
2022/12/22 06:40:09;;;;;;;2.83;2.20;;;;;;;10.33;100.00;99191.78;5040269;28;20256;-76
2022/12/22 06:45:19;;;;;;;2.47;1.45;;;;;;;10.42;100.00;99191.22;5040655;28;20213;-76
2022/12/22 06:47:46;;;;;;;4.60;1.88;;;;;;;10.45;100.00;99192.84;5039988;28;20603;-76
2022/12/22 06:50:12;;;;;;;2.95;1.45;;;;;;;10.48;100.00;99202.53;5039140;28;20232;-75
2022/12/22 06:52:39;;;;;;;2.80;1.67;;;;;;;10.49;100.00;99209.63;5040771;28;20202;-73
2022/12/22 06:55:08;;;;;;;2.22;1.70;;;;;;;10.53;100.00;99203.97;5041190;28;20485;-76
2022/12/22 06:57:35;;;;;;;3.10;2.20;;;;;;;10.53;100.00;99200.41;5040314;28;20683;-76
2022/12/22 07:00:01;;;;;;;4.43;1.80;;;;;;;10.54;100.00;99191.38;5040387;28;20240;-74
2022/12/22 07:02:28;;;;;;;4.07;1.88;;;;;;;10.54;100.00;99194.94;5039741;28;20202;-76
2022/12/22 07:04:54;;;;;;;5.60;1.77;;;;;;;10.53;100.00;99206.66;5042678;28;20210;-76
2022/12/22 07:07:21;;;;;;;4.50;2.13;;;;;;;10.54;100.00;99200.31;5043821;28;20198;-76
2022/12/22 07:09:47;;;;;;;5.60;2.03;;;;;;;10.59;100.00;99203.56;5043840;28;20217;-76
2022/12/22 07:12:15;;;;;;;5.25;1.95;;;;;;;10.62;100.00;99203.38;5044353;28;20202;-74
2022/12/22 07:14:42;;;;;;;2.90;1.60;;;;;;;10.62;100.00;99206.06;5042391;28;20645;-73
2022/12/22 07:17:08;;;;;;;2.30;1.55;;;;;;;10.67;100.00;99207.59;5041906;28;20197;-75
2022/12/22 07:19:35;;;;;;;2.25;1.42;;;;;;;10.70;100.00;99215.50;5040919;28;20226;-75
2022/12/22 07:22:02;;;;;;;4.10;1.73;;;;;;;10.70;100.00;99224.44;5040285;28;20575;-74
2022/12/22 07:24:28;;;;;;;5.68;2.10;;;;;;;10.67;100.00;99229.13;5042008;28;20660;-74
2022/12/22 07:26:55;;;;;;;3.55;1.88;;;;;;;10.58;100.00;99215.31;5040576;28;20286;-74
2022/12/22 07:29:23;;;;;;;4.13;1.70;;;;;;;10.57;100.00;99227.03;5039473;28;20309;-74
2022/12/22 07:31:49;;;;;;;3.55;1.60;;;;;;;10.56;100.00;99252.25;5047631;28;20198;-74
2022/12/22 07:34:16;;;;;;;4.13;1.45;;;;;;;10.58;100.00;99238.66;5039742;28;20213;-73
2022/12/22 07:36:43;;;;;;;5.35;2.38;;;;;;;10.52;100.00;99248.00;5020659;28;20298;-77
2022/12/22 07:39:11;;;;;;;3.38;1.70;;;;;;;10.47;100.00;99244.75;5038419;28;20304;-75
2022/12/22 07:44:23;;;;;;;5.55;1.70;;;;;;;10.49;100.00;99229.38;5040069;28;20237;-77
2022/12/22 07:46:50;;;;;;;8.73;2.08;;;;;;;10.44;100.00;99234.16;5038291;28;20236;-74
2022/12/22 07:52:00;;;;;;;5.65;2.90;;;;;;;10.44;100.00;99226.94;5038131;28;20189;-76
2022/12/22 07:54:28;;;;;;;7.88;2.65;;;;;;;10.43;100.00;99224.38;5038816;28;20274;-74
2022/12/22 07:56:55;;;;;;;4.25;2.67;;;;;;;10.41;100.00;99224.44;5037155;28;20202;-73
2022/12/22 07:59:23;;;;;;;5.22;2.42;;;;;;;10.40;100.00;99222.75;5037763;28;20679;-73
2022/12/22 08:01:49;;;;;;;4.45;2.72;;;;;;;10.39;100.00;99222.81;5037136;28;20205;-73
2022/12/22 08:04:16;;;;;;;7.43;3.22;;;;;;;10.30;100.00;99224.25;5038126;28;20198;-73
2022/12/22 08:06:42;;;;;;;3.85;2.60;;;;;;;10.31;100.00;99231.41;5037213;28;20570;-73
2022/12/22 08:09:13;;;;;;;9.82;2.83;;;;;;;10.31;100.00;99223.31;5037241;28;20226;-74
2022/12/22 08:11:39;;;;;;;3.70;2.35;;;;;;;10.33;100.00;99231.28;5036644;28;20201;-73
2022/12/22 08:14:06;;;;;;;4.75;2.80;;;;;;;10.32;100.00;99224.19;5036996;28;20208;-74
2022/12/22 08:16:34;;;;;;;6.28;2.33;;;;;;;10.31;100.00;99227.81;5037590;28;20281;-73
2022/12/22 08:19:00;;;;;;;4.63;2.58;;;;;;;10.33;100.00;99221.38;5042998;28;20220;-74
2022/12/22 08:21:27;;;;;;;6.60;3.83;;;;;;;10.36;100.00;99234.66;5046106;28;20208;-74
2022/12/22 08:23:53;;;;;;;3.72;1.83;;;;;;;10.37;100.00;99216.66;5048720;28;20265;-73
2022/12/22 08:26:23;;;;;;;5.72;2.70;;;;;;;10.37;100.00;99219.38;5049658;28;20226;-73
2022/12/22 08:28:54;;;;;;;2.67;1.67;;;;;;;10.39;100.00;99228.22;5047583;28;20209;-74
2022/12/22 08:31:22;;;;;;;4.53;1.92;;;;;;;10.38;100.00;99219.28;5048771;28;20210;-73
2022/12/22 08:33:50;;;;;;;5.43;2.30;;;;;;;10.38;100.00;99230.03;5050360;28;20206;-73
2022/12/22 08:36:17;;;;;;;2.97;1.60;;;;;;;10.42;100.00;99225.31;5046517;28;20221;-74
2022/12/22 08:38:43;;;;;;;3.83;1.88;;;;;;;10.38;100.00;99226.50;5044478;28;20229;-76
2022/12/22 08:41:13;;;;;;;4.63;1.90;;;;;;;10.45;100.00;99227.84;5045192;28;20209;-73
2022/12/22 08:43:40;;;;;;;4.00;1.70;;;;;;;10.42;100.00;99219.94;5044354;28;20699;-73
2022/12/22 08:46:07;;;;;;;2.47;1.38;;;;;;;10.47;100.00;99219.63;5045400;28;20236;-74
2022/12/22 08:48:33;;;;;;;4.70;1.35;;;;;;;10.50;100.00;99219.47;5042989;28;20224;-73
2022/12/22 08:51:02;;;;;;;4.03;1.65;;;;;;;10.49;100.00;99226.69;5041263;28;20226;-73
2022/12/22 08:53:28;;;;;;;7.50;1.80;;;;;;;10.48;100.00;99219.53;5040866;28;20202;-74
2022/12/22 08:55:56;;;;;;;5.43;1.67;;;;;;;10.48;100.00;99221.38;5043479;28;20615;-75
2022/12/22 08:58:23;;;;;;;4.55;1.55;;;;;;;10.48;100.00;99221.38;5040647;28;20198;-73
2022/12/22 09:00:49;;;;;;;3.75;1.85;;;;;;;10.52;100.00;99225.63;5036936;28;20655;-73
2022/12/22 09:03:16;;;;;;;6.15;1.85;;;;;;;10.53;100.00;99224.63;5036821;28;20577;-73
2022/12/22 09:05:42;;;;;;;7.30;1.70;;;;;;;10.52;100.00;99233.69;5036054;28;20596;-72
2022/12/22 09:08:10;;;;;;;6.45;2.20;;;;;;;10.52;100.00;99239.94;5035891;28;20580;-73
2022/12/22 09:10:37;;;;;;;4.35;1.70;;;;;;;10.55;100.00;99245.09;5036683;28;20313;-73
2022/12/22 09:13:03;;;;;;;8.25;1.70;;;;;;;10.55;100.00;99239.72;5035987;28;20229;-72
2022/12/22 09:15:30;;;;;;;5.13;1.85;;;;;;;10.55;100.00;99237.03;5036664;28;20288;-75
2022/12/22 09:17:56;;;;;;;5.60;1.77;;;;;;;10.54;100.00;99232.63;5035562;28;20208;-75
2022/12/22 09:20:23;;;;;;;6.20;2.25;;;;;;;10.55;100.00;99242.41;5036081;28;20218;-74
2022/12/22 09:22:50;;;;;;;7.93;2.45;;;;;;;10.54;100.00;99240.69;5038604;28;20274;-74
2022/12/22 09:25:18;;;;;;;7.85;1.90;;;;;;;10.56;100.00;99254.94;5036058;28;20561;-73
2022/12/22 09:27:44;;;;;;;7.43;2.17;;;;;;;10.53;100.00;99246.16;5034519;28;20573;-74
2022/12/22 09:30:12;;;;;;;7.30;2.22;;;;;;;10.52;100.00;99269.53;5034707;28;20230;-72
2022/12/22 09:32:38;;;;;;;5.97;2.10;;;;;;;10.50;100.00;99263.38;5039408;28;20212;-74
2022/12/22 09:35:05;;;;;;;4.65;1.77;;;;;;;10.49;100.00;99275.13;5044211;28;20270;-72
2022/12/22 09:37:32;;;;;;;9.60;2.63;;;;;;;10.49;100.00;99271.53;5044202;28;20206;-73
2022/12/22 09:39:58;;;;;;;8.57;1.70;;;;;;;10.47;100.00;99281.53;5044911;28;20260;-74
2022/12/22 09:42:27;;;;;;;11.50;2.67;;;;;;;10.49;100.00;99290.38;5038808;28;20701;-73
2022/12/22 09:44:54;;;;;;;8.43;2.40;;;;;;;10.49;100.00;99291.28;5037868;28;20197;-72
2022/12/22 09:47:25;;;;;;;10.77;2.40;;;;;;;10.50;100.00;99290.31;5038148;28;20232;-75
2022/12/22 09:49:56;;;;;;;8.52;2.50;;;;;;;10.47;100.00;99297.69;5037489;28;20670;-75
2022/12/22 09:52:29;;;;;;;5.90;3.08;;;;;;;10.43;100.00;99291.66;5038643;28;20201;-73
2022/12/22 09:54:56;;;;;;;11.23;3.90;;;;;;;10.39;100.00;99298.19;5038000;28;20186;-73
2022/12/22 09:57:29;;;;;;;11.30;2.60;;;;;;;10.41;100.00;99293.56;5020806;28;20611;-74
2022/12/22 09:59:56;;;;;;;11.73;3.13;;;;;;;10.43;100.00;99302.41;5037499;28;20238;-73
2022/12/22 10:02:30;;;;;;;11.30;3.55;;;;;;;10.44;100.00;99298.75;5037164;28;20656;-72
2022/12/22 10:05:11;;;;;;;11.15;2.88;;;;;;;10.42;100.00;99297.97;5037002;28;20221;-72
2022/12/22 10:07:41;;;;;;;13.50;3.08;;;;;;;10.43;100.00;99294.34;5038481;28;20245;-73
2022/12/22 10:10:23;;;;;;;5.28;2.30;;;;;;;10.42;100.00;99311.44;5038052;28;20761;-73
2022/12/22 10:12:52;;;;;;;8.63;2.92;;;;;;;10.42;100.00;99312.34;5038124;28;20197;-72
2022/12/22 10:15:18;;;;;;;7.25;2.28;;;;;;;10.44;100.00;99315.75;5038438;28;20204;-74
2022/12/22 10:17:45;;;;;;;11.90;3.00;;;;;;;10.49;100.00;99318.19;5037921;28;20202;-73
2022/12/22 10:20:25;;;;;;;5.60;2.30;;;;;;;10.52;100.00;99333.28;5037362;28;20221;-74
2022/12/22 10:22:53;;;;;;;9.93;2.83;;;;;;;10.53;100.00;99338.56;5037520;28;20228;-74
2022/12/22 10:25:31;;;;;;;15.57;3.00;;;;;;;10.57;100.00;99342.78;5037376;28;20297;-74
2022/12/22 10:28:01;;;;;;;5.68;2.70;;;;;;;10.57;100.00;99345.47;5037011;28;20297;-75
2022/12/22 10:30:31;;;;;;;11.93;2.90;;;;;;;10.59;100.00;99335.50;5039397;28;20224;-74
2022/12/22 10:33:06;;;;;;;6.43;2.80;;;;;;;10.68;100.00;99344.81;5039538;28;20630;-72
2022/12/22 10:35:44;;;;;;;6.95;2.78;;;;;;;10.72;100.00;99338.28;5041487;28;20186;-74
2022/12/22 10:38:27;;;;;;;6.28;1.80;;;;;;;10.74;100.00;99347.13;5039399;28;20189;-72
2022/12/22 10:40:56;;;;;;;10.90;2.85;;;;;;;10.68;100.00;99352.91;5037572;28;20605;-73
2022/12/22 10:43:27;;;;;;;4.10;2.25;;;;;;;10.76;100.00;99347.91;5037557;28;20241;-74
2022/12/22 10:45:55;;;;;;;5.10;2.60;;;;;;;10.79;100.00;99352.25;5022299;28;20204;-74
2022/12/22 10:48:27;;;;;;;8.30;1.80;;;;;;;10.85;100.00;99357.22;5036996;28;20582;-73
2022/12/22 10:50:54;;;;;;;4.00;1.98;;;;;;;10.89;100.00;99353.38;5037343;28;20220;-73
2022/12/22 10:53:21;;;;;;;4.25;1.77;;;;;;;10.94;100.00;99358.47;5036834;28;20205;-73
2022/12/22 10:55:53;;;;;;;6.63;2.20;;;;;;;10.93;100.00;99363.00;5038098;28;20232;-74
2022/12/22 10:58:20;;;;;;;4.35;1.90;;;;;;;11.02;100.00;99372.31;5037125;28;20186;-72
2022/12/22 11:01:01;;;;;;;6.90;2.28;;;;;;;11.02;100.00;99373.19;5062059;22;20233;-75
2022/12/22 11:03:32;;;;;;;4.93;1.73;;;;;;;10.94;100.00;99385.41;5060313;28;20192;-77
2022/12/22 11:06:00;;;;;;;3.95;1.85;;;;;;;10.95;100.00;99373.69;5058174;28;20320;-76
2022/12/22 11:08:28;;;;;;;4.95;1.55;;;;;;;10.99;100.00;99383.28;5057581;28;20197;-76
2022/12/22 11:11:00;;;;;;;5.93;1.83;;;;;;;10.97;100.00;99388.78;5072479;28;20228;-75
2022/12/22 11:13:53;;;;;;;5.20;1.92;;;;;;;10.95;100.00;99397.94;5079530;28;20207;-76
2022/12/22 11:16:29;;;;;;;6.43;1.88;;;;;;;10.92;100.00;99407.06;5079083;28;20273;-76
2022/12/22 11:19:07;;;;;;;4.65;1.80;;;;;;;10.97;100.00;99410.34;5076643;28;20184;-74
2022/12/22 11:21:42;;;;;;;4.55;1.45;;;;;;;11.03;100.00;99407.25;5078061;28;20231;-75
2022/12/22 11:24:21;;;;;;;7.38;2.10;;;;;;;11.06;100.00;99414.28;5078286;28;20199;-75
2022/12/22 11:26:55;;;;;;;2.53;1.80;;;;;;;11.06;100.00;99425.06;5081195;28;20441;-76
2022/12/22 11:29:41;;;;;;;7.60;2.15;;;;;;;11.06;100.00;99425.06;5079485;28;20185;-78
2022/12/22 11:32:34;;;;;;;4.20;1.50;;;;;;;11.14;100.00;99432.66;5076608;28;20195;-76
2022/12/22 11:35:08;;;;;;;6.00;2.53;;;;;;;11.14;100.00;99429.94;5057685;28;20200;-75
2022/12/22 11:37:45;;;;;;;7.47;1.70;;;;;;;11.10;100.00;99431.97;5075207;28;20217;-76
2022/12/22 11:40:20;;;;;;;3.22;1.50;;;;;;;11.14;100.00;99443.44;5080544;28;20224;-75
2022/12/22 11:43:01;;;;;;;4.97;1.70;;;;;;;11.14;100.00;99452.38;5076449;28;20611;-75
2022/12/22 11:45:51;;;;;;;2.33;1.40;;;;;;;11.10;100.00;99439.19;5075107;28;20185;-76
2022/12/22 11:48:54;;;;;;;2.47;1.58;;;;;;;11.08;100.00;99460.88;5074936;28;20201;-75
2022/12/22 11:51:35;;;;;;;2.55;1.50;;;;;;;11.12;100.00;99461.50;5079255;28;20235;-75
2022/12/22 11:54:22;;;;;;;2.45;0.90;;;;;;;11.13;100.00;99466.81;5078404;28;20197;-75
2022/12/22 11:56:57;;;;;;;2.80;1.27;;;;;;;11.13;100.00;99480.28;5075496;28;20201;-77
2022/12/22 11:59:41;;;;;;;2.88;1.20;;;;;;;11.10;100.00;99472.38;5077874;28;20196;-75
2022/12/22 12:02:35;;;;;;;2.30;1.10;;;;;;;11.17;100.00;99480.94;5063322;28;20275;-75
2022/12/22 12:05:43;;;;;;;2.53;1.00;;;;;;;11.12;100.00;99483.94;5080092;28;20185;-76
2022/12/22 12:08:23;;;;;;;5.10;0.90;;;;;;;11.15;100.00;99501.75;4979492;28;20278;-77
2022/12/22 12:10:53;;;;;;;1.58;0.70;;;;;;;11.11;100.00;99492.13;4993691;28;20313;-76
2022/12/22 12:13:29;;;;;;;1.55;0.80;;;;;;;11.10;100.00;99496.63;4993427;28;20747;-76
2022/12/22 12:16:05;;;;;;;1.95;0.95;;;;;;;11.10;100.00;99507.41;4993309;28;20191;-76
2022/12/22 12:18:55;;;;;;;1.40;0.80;;;;;;;11.12;100.00;99510.88;4992512;28;20203;-75
2022/12/22 12:21:27;;;;;;;1.85;1.08;;;;;;;11.16;100.00;99514.25;4989187;28;20641;-75
2022/12/22 12:24:15;;;;;;;2.65;1.25;;;;;;;11.14;100.00;99524.28;4992737;28;20210;-75
2022/12/22 12:26:54;;;;;;;6.18;1.20;;;;;;;11.14;100.00;99529.66;4976264;28;20207;-75
2022/12/22 12:29:24;;;;;;;2.30;1.00;;;;;;;11.10;100.00;99537.06;4993486;28;20203;-75
2022/12/22 12:31:57;;;;;;;2.88;1.08;;;;;;;11.03;100.00;99544.66;4993028;28;20552;-76
2022/12/22 12:34:25;;;;;;;4.45;1.23;;;;;;;11.00;100.00;99538.59;4993758;28;20199;-75
2022/12/22 12:36:56;;;;;;;3.15;1.20;;;;;;;11.00;100.00;99547.53;4992923;28;20230;-77
2022/12/22 12:39:33;;;;;;;1.92;1.10;;;;;;;10.96;100.00;99547.81;4991342;28;20214;-75
2022/12/22 12:42:10;;;;;;;3.35;1.13;;;;;;;10.98;100.00;99552.16;4992085;28;20282;-76
2022/12/22 12:44:38;;;;;;;2.63;1.08;;;;;;;10.95;100.00;99565.81;5021009;28;20395;-76
2022/12/22 12:47:20;;;;;;;6.78;1.58;;;;;;;10.93;100.00;99573.13;5073531;28;20220;-76
2022/12/22 12:50:00;;;;;;;2.53;1.13;;;;;;;10.93;100.00;99569.56;5073690;28;20232;-76
2022/12/22 12:53:15;;;;;;;2.50;1.10;;;;;;;10.98;100.00;99571.00;5075918;28;20191;-76
2022/12/22 12:56:00;;;;;;;1.58;1.02;;;;;;;11.01;100.00;99572.63;4993805;28;20266;-76
2022/12/22 12:58:56;;;;;;;3.03;1.10;;;;;;;11.06;100.00;99570.56;4992112;28;20274;-76
2022/12/22 13:01:54;;;;;;;3.33;1.40;;;;;;;11.03;100.00;99568.91;4992565;28;20231;-76
2022/12/22 13:05:12;;;;;;;3.70;1.50;;;;;;;10.99;100.00;99578.13;4992890;28;20184;-77
2022/12/22 13:08:07;;;;;;;3.72;1.17;;;;;;;10.99;100.00;99598.81;4992457;28;20664;-77
2022/12/22 13:10:36;;;;;;;4.82;1.63;;;;;;;10.98;100.00;99597.94;4994849;28;20243;-79
2022/12/22 13:13:04;;;;;;;2.80;2.00;;;;;;;10.97;100.00;99598.06;4993836;28;20574;-76
2022/12/22 13:15:33;;;;;;;2.65;1.80;;;;;;;10.94;100.00;99601.78;4993534;28;20673;-75
2022/12/22 13:18:01;;;;;;;2.58;1.40;;;;;;;10.96;100.00;99621.41;4993599;28;20227;-75
2022/12/22 13:20:31;;;;;;;2.67;1.30;;;;;;;10.94;100.00;99634.09;4994899;28;20316;-77
2022/12/22 13:23:00;;;;;;;3.33;2.00;;;;;;;10.94;100.00;99633.25;4994231;28;20191;-77
2022/12/22 13:25:40;;;;;;;2.40;1.40;;;;;;;10.88;100.00;99630.91;4998663;28;20277;-77
2022/12/22 13:28:14;;;;;;;4.13;2.38;;;;;;;10.83;100.00;99632.06;4997102;28;20203;-74
2022/12/22 13:30:47;;;;;;;2.55;1.55;;;;;;;10.83;100.00;99640.13;4997456;28;20229;-77
2022/12/22 13:33:17;;;;;;;4.25;1.60;;;;;;;10.79;100.00;99637.72;5069724;28;20227;-76
2022/12/22 13:35:46;;;;;;;2.30;1.70;;;;;;;10.72;100.00;99647.09;5077270;28;20193;-75
2022/12/22 13:38:27;;;;;;;2.65;1.23;;;;;;;10.75;100.00;99649.63;5076016;28;20296;-78
2022/12/22 13:40:54;;;;;;;2.28;1.15;;;;;;;10.76;100.00;99654.03;5082752;28;20224;-76
2022/12/22 13:43:23;;;;;;;2.88;1.48;;;;;;;10.73;100.00;99663.16;5082496;28;20208;-76
2022/12/22 13:45:52;;;;;;;2.80;1.95;;;;;;;10.74;100.00;99664.03;5081486;28;20307;-77
2022/12/22 13:48:21;;;;;;;5.05;1.88;;;;;;;10.74;100.00;99662.22;5077295;28;20708;-76
2022/12/22 13:50:51;;;;;;;3.67;1.40;;;;;;;10.67;100.00;99658.13;5078183;28;20675;-75
2022/12/22 13:53:22;;;;;;;2.90;1.67;;;;;;;10.67;100.00;99663.50;5079879;28;20200;-75
2022/12/22 13:55:51;;;;;;;2.70;1.77;;;;;;;10.59;100.00;99657.72;5079055;28;20192;-76
2022/12/22 13:58:27;;;;;;;2.90;1.40;;;;;;;10.53;100.00;99658.91;5079427;28;20208;-77
2022/12/22 14:01:15;;;;;;;2.15;1.42;;;;;;;10.51;100.00;99657.28;5079850;28;20232;-78
2022/12/22 14:03:46;;;;;;;3.88;2.45;;;;;;;10.50;100.00;99656.41;5080572;28;20211;-75
2022/12/22 14:06:24;;;;;;;3.70;1.58;;;;;;;10.42;100.00;99646.09;5078060;28;20193;-77
2022/12/22 14:08:51;;;;;;;2.42;1.63;;;;;;;10.35;100.00;99649.19;5078111;28;20213;-77
2022/12/22 14:11:18;;;;;;;2.45;1.42;;;;;;;10.43;100.00;99655.03;5080621;28;20227;-76
2022/12/22 14:13:46;;;;;;;4.88;1.88;;;;;;;10.53;100.00;99663.44;5079511;28;20193;-76
2022/12/22 14:16:14;;;;;;;10.40;2.40;;;;;;;10.50;100.00;99660.94;5080943;28;20204;-78
2022/12/22 14:18:41;;;;;;;2.75;1.75;;;;;;;10.50;100.00;99669.88;5079265;28;20634;-76
2022/12/22 14:21:09;;;;;;;2.42;1.50;;;;;;;10.44;100.00;99664.81;5078121;28;20224;-76
2022/12/22 14:23:41;;;;;;;3.38;1.77;;;;;;;10.41;100.00;99670.41;5077742;28;20226;-77
2022/12/22 14:26:13;;;;;;;2.97;1.42;;;;;;;10.38;100.00;99676.81;5077013;28;20579;-76
2022/12/22 14:28:49;;;;;;;6.93;1.40;;;;;;;10.39;100.00;99673.16;5076471;28;20231;-76
2022/12/22 14:31:18;;;;;;;6.03;2.10;;;;;;;10.34;100.00;99674.41;5077416;28;20231;-75
2022/12/22 14:33:52;;;;;;;3.65;1.40;;;;;;;10.33;100.00;99664.56;5077762;28;20260;-77
2022/12/22 14:36:22;;;;;;;1.58;1.00;;;;;;;10.32;100.00;99670.91;5076615;28;20626;-75
2022/12/22 14:38:50;;;;;;;3.25;1.02;;;;;;;10.33;100.00;99670.81;5076595;28;20661;-74
2022/12/22 14:41:42;;;;;;;9.45;1.30;;;;;;;10.30;100.00;99681.75;5076347;28;20608;-75
2022/12/22 14:44:15;;;;;;;1.42;0.88;;;;;;;10.34;100.00;99687.84;5076870;28;20607;-76
2022/12/22 14:46:44;;;;;;;2.08;1.00;;;;;;;10.31;100.00;99686.19;5076023;28;20208;-77
2022/12/22 14:49:14;;;;;;;1.55;0.95;;;;;;;10.28;100.00;99693.53;5076454;28;20224;-75
2022/12/22 14:51:41;;;;;;;3.13;1.00;;;;;;;10.28;100.00;99701.59;5076906;28;20693;-76
2022/12/22 14:54:20;;;;;;;1.70;0.82;;;;;;;10.21;100.00;99699.25;5076783;28;20204;-76
2022/12/22 14:56:48;;;;;;;2.72;1.25;;;;;;;10.20;100.00;99702.91;5077395;28;20185;-76
2022/12/22 14:59:23;;;;;;;3.20;1.10;;;;;;;10.20;100.00;99704.72;5076647;28;20196;-76
2022/12/22 15:01:58;;;;;;;2.15;0.93;;;;;;;10.18;100.00;99709.31;5076942;28;20562;-76
2022/12/22 15:04:25;;;;;;;2.92;1.15;;;;;;;10.19;100.00;99706.53;5076644;28;20201;-76
2022/12/22 15:07:03;;;;;;;3.60;1.00;;;;;;;10.26;100.00;99711.59;5075812;28;20205;-75
2022/12/22 15:09:30;;;;;;;2.20;0.95;;;;;;;10.17;100.00;99719.19;5075572;28;20601;-74
2022/12/22 15:12:04;;;;;;;1.48;0.85;;;;;;;10.18;100.00;99728.16;5076269;28;20570;-77
2022/12/22 15:14:34;;;;;;;1.80;1.30;;;;;;;10.15;100.00;99718.44;5075986;28;20185;-76
2022/12/22 15:17:02;;;;;;;1.48;1.00;;;;;;;10.20;100.00;99726.25;5075365;28;20187;-75
2022/12/22 15:19:31;;;;;;;3.60;1.45;;;;;;;10.19;100.00;99717.28;5075465;28;20200;-75
2022/12/22 15:21:57;;;;;;;2.00;0.98;;;;;;;10.17;100.00;99721.03;5078300;28;20196;-75
2022/12/22 15:24:24;;;;;;;1.92;1.27;;;;;;;10.21;100.00;99723.47;5078313;28;20200;-76
2022/12/22 15:26:51;;;;;;;2.25;1.50;;;;;;;10.18;100.00;99723.63;5075390;28;20204;-77